createdAt,value
2022-12-18T00:01:25.725Z,45.85
2022-12-18T00:03:55.319Z,36.35
2022-12-18T00:06:24.194Z,34.05
2022-12-18T00:08:53.356Z,43.15
2022-12-18T00:11:22.271Z,41.88
2022-12-18T00:13:50.703Z,39.58
2022-12-18T00:16:21.235Z,43.75
2022-12-18T00:18:49.094Z,37.20
2022-12-18T00:21:17.263Z,38.00
2022-12-18T00:23:46.346Z,37.78
2022-12-18T00:26:17.930Z,43.90
2022-12-18T00:28:46.741Z,43.25
2022-12-18T00:31:16.320Z,43.75
2022-12-18T00:33:44.223Z,47.33
2022-12-18T00:36:14.958Z,39.58
2022-12-18T00:38:43.340Z,39.88
2022-12-18T00:41:12.634Z,41.70
2022-12-18T00:43:41.365Z,41.65
2022-12-18T00:46:09.455Z,39.30
2022-12-18T00:48:37.466Z,36.92
2022-12-18T00:51:05.120Z,40.00
2022-12-18T00:53:32.854Z,37.67
2022-12-18T00:56:00.487Z,43.28
2022-12-18T00:58:28.280Z,45.47
2022-12-18T01:00:57.273Z,43.05
2022-12-18T01:03:24.994Z,51.08
2022-12-18T01:05:52.683Z,44.72
2022-12-18T01:08:20.856Z,51.75
2022-12-18T01:10:48.474Z,43.92
2022-12-18T01:13:16.260Z,49.00
2022-12-18T01:15:50.199Z,32.08
2022-12-18T01:18:19.800Z,31.65
2022-12-18T01:20:47.443Z,37.88
2022-12-18T01:23:15.131Z,39.90
2022-12-18T01:25:42.878Z,44.42
2022-12-18T01:28:12.039Z,31.58
2022-12-18T01:30:39.971Z,40.40
2022-12-18T01:33:07.703Z,39.72
2022-12-18T01:35:43.695Z,35.25
2022-12-18T01:38:11.483Z,29.92
2022-12-18T01:40:39.495Z,38.25
2022-12-18T01:43:07.260Z,36.58
2022-12-18T01:45:34.974Z,46.53
2022-12-18T01:48:05.165Z,39.22
2022-12-18T01:50:36.986Z,32.85
2022-12-18T01:53:09.952Z,31.15
2022-12-18T01:55:43.035Z,40.45
2022-12-18T01:58:11.460Z,36.90
2022-12-18T02:00:39.225Z,37.08
2022-12-18T02:03:06.937Z,39.80
2022-12-18T02:05:42.027Z,37.22
2022-12-18T02:08:18.783Z,32.85
2022-12-18T02:10:53.884Z,46.08
2022-12-18T02:13:32.168Z,32.60
2022-12-18T02:16:06.881Z,28.92
2022-12-18T02:18:38.984Z,34.90
2022-12-18T02:21:14.574Z,39.05
2022-12-18T02:23:53.707Z,39.20
2022-12-18T02:26:28.319Z,39.08
2022-12-18T02:29:02.398Z,28.85
2022-12-18T02:31:37.379Z,28.30
2022-12-18T02:34:08.727Z,42.30
2022-12-18T02:36:43.213Z,34.08
2022-12-18T02:39:13.703Z,36.03
2022-12-18T02:41:50.340Z,30.20
2022-12-18T02:44:19.022Z,42.50
2022-12-18T02:46:48.430Z,38.75
2022-12-18T02:49:28.799Z,36.88
2022-12-18T02:52:07.005Z,33.13
2022-12-18T02:54:48.797Z,35.90
2022-12-18T02:57:25.882Z,28.77
2022-12-18T03:00:00.724Z,33.08
2022-12-18T03:02:35.851Z,26.40
2022-12-18T03:05:10.308Z,25.08
2022-12-18T03:07:41.336Z,28.45
2022-12-18T03:10:15.999Z,31.20
2022-12-18T03:12:53.391Z,25.40
2022-12-18T03:15:24.947Z,29.90
2022-12-18T03:18:05.163Z,35.53
2022-12-18T03:20:36.494Z,29.52
2022-12-18T03:23:09.191Z,31.30
2022-12-18T03:25:41.496Z,34.85
2022-12-18T03:28:15.231Z,32.33
2022-12-18T03:30:46.905Z,28.77
2022-12-18T03:33:20.524Z,25.80
2022-12-18T03:35:50.618Z,27.15
2022-12-18T03:38:19.671Z,26.02
2022-12-18T03:40:58.280Z,32.50
2022-12-18T03:43:38.694Z,23.15
2022-12-18T03:46:10.154Z,22.77
2022-12-18T03:48:43.317Z,27.10
2022-12-18T03:51:20.753Z,28.88
2022-12-18T03:53:58.104Z,30.13
2022-12-18T03:56:34.984Z,32.58
2022-12-18T03:59:06.369Z,23.75
2022-12-18T04:01:38.069Z,26.02
2022-12-18T04:04:08.270Z,28.17
2022-12-18T04:06:40.483Z,30.70
2022-12-18T04:09:10.847Z,30.42
2022-12-18T04:11:42.077Z,28.20
2022-12-18T04:14:16.069Z,19.80
2022-12-18T04:16:45.928Z,24.42
2022-12-18T04:19:16.800Z,21.17
2022-12-18T04:21:46.452Z,30.20
2022-12-18T04:24:15.374Z,25.25
2022-12-18T04:26:52.131Z,31.15
2022-12-18T04:29:26.567Z,25.95
2022-12-18T04:31:55.177Z,23.05
2022-12-18T04:34:24.327Z,23.98
2022-12-18T04:36:54.287Z,21.80
2022-12-18T04:39:24.102Z,23.73
2022-12-18T04:41:55.296Z,23.90
2022-12-18T04:44:22.983Z,26.67
2022-12-18T04:46:52.917Z,25.90
2022-12-18T04:49:20.647Z,28.85
2022-12-18T04:51:48.343Z,30.52
2022-12-18T04:54:16.829Z,25.05
2022-12-18T04:56:44.480Z,23.33
2022-12-18T04:59:12.124Z,24.45
2022-12-18T05:01:39.908Z,23.30
2022-12-18T05:04:09.210Z,25.77
2022-12-18T05:06:36.872Z,21.33
2022-12-18T05:09:04.825Z,29.90
2022-12-18T05:11:33.692Z,26.65
2022-12-18T05:14:01.398Z,24.55
2022-12-18T05:16:29.060Z,26.80
2022-12-18T05:18:56.747Z,27.77
2022-12-18T05:21:25.753Z,28.85
2022-12-18T05:23:53.376Z,23.58
2022-12-18T05:26:21.482Z,26.55
2022-12-18T05:28:49.119Z,28.30
2022-12-18T05:31:16.994Z,24.75
2022-12-18T05:33:44.736Z,24.30
2022-12-18T05:36:12.681Z,26.48
2022-12-18T05:38:41.796Z,21.35
2022-12-18T05:41:10.422Z,25.45
2022-12-18T05:43:40.189Z,27.17
2022-12-18T05:46:10.061Z,21.13
2022-12-18T05:48:37.814Z,22.92
2022-12-18T05:51:07.885Z,25.92
2022-12-18T05:53:37.341Z,20.00
2022-12-18T05:56:09.187Z,24.65
2022-12-18T05:58:37.639Z,24.80
2022-12-18T06:01:10.586Z,22.20
2022-12-18T06:03:38.571Z,21.83
2022-12-18T06:06:14.118Z,29.70
2022-12-18T06:08:46.143Z,25.70
2022-12-18T06:11:18.952Z,24.02
2022-12-18T06:13:46.683Z,19.40
2022-12-18T06:16:14.668Z,27.45
2022-12-18T06:18:42.419Z,25.92
2022-12-18T06:21:10.186Z,25.90
2022-12-18T06:23:39.112Z,22.88
2022-12-18T06:26:07.869Z,24.23
2022-12-18T06:28:36.999Z,20.98
2022-12-18T06:31:05.700Z,26.45
2022-12-18T06:33:33.699Z,23.52
2022-12-18T06:36:02.412Z,24.55
2022-12-18T06:38:30.099Z,23.67
2022-12-18T06:40:57.880Z,21.13
2022-12-18T06:43:25.702Z,25.10
2022-12-18T06:46:00.857Z,27.05
2022-12-18T06:48:28.725Z,24.10
2022-12-18T06:50:56.788Z,20.85
2022-12-18T06:53:24.715Z,25.02
2022-12-18T06:55:52.423Z,23.65
2022-12-18T06:58:20.301Z,25.85
2022-12-18T07:00:47.977Z,17.80
2022-12-18T07:03:17.054Z,23.08
2022-12-18T07:05:44.680Z,24.67
2022-12-18T07:08:12.353Z,19.65
2022-12-18T07:10:47.406Z,27.05
2022-12-18T07:13:15.230Z,25.70
2022-12-18T07:15:43.375Z,24.50
2022-12-18T07:18:11.870Z,24.65
2022-12-18T07:20:40.870Z,19.67
2022-12-18T07:23:08.549Z,22.38
2022-12-18T07:25:37.871Z,19.45
2022-12-18T07:28:06.146Z,26.38
2022-12-18T07:30:33.801Z,21.58
2022-12-18T07:33:01.483Z,22.95
2022-12-18T07:35:29.211Z,29.15
2022-12-18T07:37:58.228Z,28.65
2022-12-18T07:40:25.876Z,23.92
2022-12-18T07:42:53.538Z,24.92
2022-12-18T07:45:21.207Z,24.55
2022-12-18T07:47:48.868Z,22.50
2022-12-18T07:50:16.878Z,25.63
2022-12-18T07:52:44.564Z,24.60
2022-12-18T07:55:13.624Z,27.55
2022-12-18T07:57:50.442Z,21.40
2022-12-18T08:00:19.494Z,28.33
2022-12-18T08:02:49.408Z,22.17
2022-12-18T08:05:17.310Z,21.40
2022-12-18T08:07:44.956Z,22.40
2022-12-18T08:10:14.274Z,25.95
2022-12-18T08:12:41.950Z,28.75
2022-12-18T08:15:10.290Z,30.77
2022-12-18T08:17:38.127Z,25.33
2022-12-18T08:20:06.194Z,25.77
2022-12-18T08:22:38.482Z,25.67
2022-12-18T08:25:07.133Z,24.67
2022-12-18T08:27:36.143Z,20.42
2022-12-18T08:30:03.981Z,24.65
2022-12-18T08:32:33.704Z,18.50
2022-12-18T08:35:01.594Z,23.13
2022-12-18T08:37:29.303Z,25.90
2022-12-18T08:39:56.962Z,21.13
2022-12-18T08:42:42.038Z,19.95
2022-12-18T08:45:11.800Z,26.00
2022-12-18T08:47:39.484Z,18.00
2022-12-18T08:50:08.027Z,20.35
2022-12-18T08:52:35.695Z,22.25
2022-12-18T08:55:03.341Z,30.83
2022-12-18T08:57:30.989Z,20.45
2022-12-18T08:59:58.635Z,21.70
2022-12-18T09:02:27.919Z,29.77
2022-12-18T09:04:57.728Z,30.25
2022-12-18T09:07:25.548Z,25.70
2022-12-18T09:09:53.204Z,23.00
2022-12-18T09:12:20.928Z,26.65
2022-12-18T09:14:48.613Z,25.27
2022-12-18T09:17:16.360Z,22.45
2022-12-18T09:19:45.490Z,21.88
2022-12-18T09:22:13.285Z,24.20
2022-12-18T09:24:40.971Z,29.30
2022-12-18T09:27:08.671Z,31.25
2022-12-18T09:29:36.621Z,31.55
2022-12-18T09:32:04.302Z,26.17
2022-12-18T09:34:32.061Z,32.00
2022-12-18T09:37:01.086Z,25.35
2022-12-18T09:39:28.761Z,23.95
2022-12-18T09:41:59.303Z,26.92
2022-12-18T09:44:30.125Z,23.50
2022-12-18T09:47:06.923Z,24.25
2022-12-18T09:49:39.856Z,20.77
2022-12-18T09:52:13.817Z,23.30
2022-12-18T09:54:42.913Z,21.10
2022-12-18T09:57:15.347Z,25.50
2022-12-18T09:59:45.916Z,21.60
2022-12-18T10:02:20.179Z,25.17
2022-12-18T10:04:57.477Z,23.42
2022-12-18T10:07:37.316Z,29.52
2022-12-18T10:10:13.538Z,25.67
2022-12-18T10:12:48.906Z,19.88
2022-12-18T10:15:25.437Z,24.80
2022-12-18T10:20:31.723Z,26.63
2022-12-18T10:23:10.399Z,22.33
2022-12-18T10:25:54.643Z,20.70
2022-12-18T10:28:23.551Z,26.48
2022-12-18T10:30:51.223Z,25.48
2022-12-18T10:33:21.119Z,20.35
2022-12-18T10:35:51.424Z,20.08
2022-12-18T10:38:27.299Z,18.80
2022-12-18T10:40:57.531Z,16.35
2022-12-18T10:43:27.895Z,16.83
2022-12-18T10:46:18.807Z,15.30
2022-12-18T10:48:54.279Z,18.55
2022-12-18T10:51:24.289Z,15.00
2022-12-18T10:53:59.012Z,15.27
2022-12-18T10:56:29.184Z,15.43
2022-12-18T10:59:01.950Z,20.30
2022-12-18T11:01:33.080Z,13.43
2022-12-18T11:04:03.980Z,17.45
2022-12-18T11:06:31.814Z,15.60
2022-12-18T11:09:12.235Z,16.15
2022-12-18T11:11:41.105Z,17.95
2022-12-18T11:14:19.069Z,20.00
2022-12-18T11:17:23.823Z,18.73
2022-12-18T11:19:39.021Z,14.48
2022-12-18T11:22:23.714Z,14.95
2022-12-18T11:25:30.841Z,11.70
2022-12-18T11:27:51.427Z,13.18
2022-12-18T11:30:26.015Z,13.75
2022-12-18T11:32:57.820Z,13.32
2022-12-18T11:35:36.681Z,14.70
2022-12-18T11:38:12.702Z,13.32
2022-12-18T11:40:46.529Z,14.30
2022-12-18T11:43:19.833Z,14.57
2022-12-18T11:45:53.811Z,14.15
2022-12-18T11:48:25.868Z,14.95
2022-12-18T11:50:55.896Z,13.05
2022-12-18T11:53:25.199Z,14.63
2022-12-18T11:56:04.246Z,42.83
2022-12-18T11:58:46.813Z,26.98
2022-12-18T12:01:24.018Z,19.50
2022-12-18T12:04:05.085Z,19.40
2022-12-18T12:06:42.935Z,16.67
2022-12-18T12:09:23.103Z,18.75
2022-12-18T12:12:09.376Z,12.85
2022-12-18T12:14:51.390Z,15.05
2022-12-18T12:17:30.530Z,15.40
2022-12-18T12:20:09.562Z,15.70
2022-12-18T12:22:42.979Z,13.43
2022-12-18T12:25:29.741Z,16.15
2022-12-18T12:28:10.172Z,15.82
2022-12-18T12:30:47.704Z,13.63
2022-12-18T12:33:29.054Z,13.18
2022-12-18T12:36:05.528Z,12.32
2022-12-18T12:41:27.624Z,12.68
2022-12-18T12:43:59.012Z,12.48
2022-12-18T12:46:28.472Z,12.98
2022-12-18T12:48:58.877Z,12.88
2022-12-18T12:51:30.011Z,17.77
2022-12-18T12:54:00.111Z,11.13
2022-12-18T12:56:39.112Z,20.10
2022-12-18T12:59:18.150Z,15.18
2022-12-18T13:01:56.829Z,16.90
2022-12-18T13:04:34.141Z,12.70
2022-12-18T13:07:07.442Z,14.02
2022-12-18T13:09:37.111Z,16.02
2022-12-18T13:12:30.186Z,12.48
2022-12-18T13:15:23.854Z,11.85
2022-12-18T13:18:06.142Z,11.52
2022-12-18T13:20:39.860Z,11.52
2022-12-18T13:23:32.852Z,11.02
2022-12-18T13:26:26.477Z,12.50
2022-12-18T13:32:09.001Z,11.93
2022-12-18T13:34:37.411Z,11.32
2022-12-18T13:37:44.669Z,12.85
2022-12-18T13:40:56.121Z,12.20
2022-12-18T13:43:43.781Z,11.75
2022-12-18T13:46:25.263Z,12.68
2022-12-18T13:49:02.661Z,11.20
2022-12-18T13:51:33.866Z,11.43
2022-12-18T13:54:04.002Z,11.18
2022-12-18T13:56:35.046Z,12.68
2022-12-18T13:59:16.590Z,11.80
2022-12-18T14:01:48.530Z,12.20
2022-12-18T14:04:23.571Z,11.02
2022-12-18T14:06:54.135Z,12.98
2022-12-18T14:09:25.948Z,12.57
2022-12-18T14:12:15.260Z,15.32
2022-12-18T14:14:48.029Z,14.13
2022-12-18T14:17:18.762Z,10.68
2022-12-18T14:19:49.611Z,9.88
2022-12-18T14:22:19.774Z,10.43
2022-12-18T14:24:48.045Z,13.05
2022-12-18T14:27:24.863Z,9.80
2022-12-18T14:29:52.596Z,10.38
2022-12-18T14:32:22.481Z,13.70
2022-12-18T14:34:52.162Z,11.73
2022-12-18T14:37:23.334Z,11.23
2022-12-18T14:39:56.216Z,11.32
2022-12-18T14:42:23.981Z,12.68
2022-12-18T14:45:12.866Z,10.10
2022-12-18T14:47:40.895Z,9.23
2022-12-18T14:50:15.565Z,9.70
2022-12-18T14:52:43.327Z,9.73
2022-12-18T14:55:17.593Z,10.40
2022-12-18T14:57:46.002Z,12.07
2022-12-18T15:00:19.353Z,10.07
2022-12-18T15:02:50.378Z,11.10
2022-12-18T15:05:21.012Z,9.52
2022-12-18T15:07:50.550Z,11.25
2022-12-18T15:10:20.996Z,11.52
2022-12-18T15:12:49.890Z,9.02
2022-12-18T15:15:50.104Z,9.38
2022-12-18T15:18:22.014Z,9.05
2022-12-18T15:20:51.738Z,10.55
2022-12-18T15:23:21.974Z,9.68
2022-12-18T15:25:56.135Z,9.70
2022-12-18T15:28:26.675Z,8.43
2022-12-18T15:31:05.954Z,9.18
2022-12-18T15:33:36.842Z,11.00
2022-12-18T15:36:07.352Z,8.85
2022-12-18T15:38:35.129Z,10.00
2022-12-18T15:41:02.911Z,7.80
2022-12-18T15:43:36.236Z,9.52
2022-12-18T15:46:05.540Z,11.20
2022-12-18T15:48:37.456Z,10.55
2022-12-18T15:51:06.779Z,9.05
2022-12-18T15:53:35.378Z,9.80
2022-12-18T15:56:20.680Z,9.07
2022-12-18T15:58:48.652Z,8.27
2022-12-18T16:01:17.352Z,8.68
2022-12-18T16:03:46.626Z,8.07
2022-12-18T16:06:14.438Z,10.85
2022-12-18T16:08:42.132Z,8.73
2022-12-18T16:11:38.616Z,10.45
2022-12-18T16:14:08.150Z,11.63
2022-12-18T16:16:35.905Z,11.02
2022-12-18T16:19:04.895Z,12.07
2022-12-18T16:21:34.258Z,9.70
2022-12-18T16:24:02.186Z,11.98
2022-12-18T16:26:29.886Z,13.18
2022-12-18T16:28:57.516Z,8.52
2022-12-18T16:31:25.368Z,11.63
2022-12-18T16:34:16.214Z,13.77
2022-12-18T16:36:43.927Z,11.85
2022-12-18T16:39:11.999Z,21.30
2022-12-18T16:41:39.682Z,19.63
2022-12-18T16:44:07.423Z,12.98
2022-12-18T16:46:35.297Z,14.13
2022-12-18T16:49:03.045Z,14.50
2022-12-18T16:51:32.071Z,14.00
2022-12-18T16:53:59.722Z,15.55
2022-12-18T16:56:27.411Z,11.57
2022-12-18T16:58:57.067Z,13.68
2022-12-18T17:01:29.963Z,14.10
2022-12-18T17:03:59.273Z,13.35
2022-12-18T17:06:29.516Z,11.38
2022-12-18T17:08:59.701Z,13.38
2022-12-18T17:11:28.893Z,13.35
2022-12-18T17:13:57.258Z,13.40
2022-12-18T17:16:26.906Z,14.35
2022-12-18T17:18:54.823Z,16.98
2022-12-18T17:21:22.538Z,14.18
2022-12-18T17:23:50.206Z,13.68
2022-12-18T17:26:19.194Z,14.55
2022-12-18T17:28:47.145Z,13.85
2022-12-18T17:31:18.358Z,13.20
2022-12-18T17:33:46.461Z,13.52
2022-12-18T17:36:14.675Z,16.27
2022-12-18T17:38:42.389Z,11.20
2022-12-18T17:41:11.857Z,15.88
2022-12-18T17:43:45.565Z,17.45
2022-12-18T17:46:15.057Z,13.52
2022-12-18T17:48:42.912Z,16.08
2022-12-18T17:51:12.026Z,11.75
2022-12-18T17:53:40.619Z,13.63
2022-12-18T17:56:10.876Z,18.15
2022-12-18T17:58:39.279Z,14.20
2022-12-18T18:01:08.543Z,13.20
2022-12-18T18:03:38.936Z,16.00
2022-12-18T18:06:07.628Z,16.48
2022-12-18T18:08:36.634Z,13.80
2022-12-18T18:11:20.305Z,13.90
2022-12-18T18:14:03.080Z,16.52
2022-12-18T18:16:34.516Z,17.67
2022-12-18T18:19:03.694Z,16.58
2022-12-18T18:21:32.185Z,14.50
2022-12-18T18:24:02.151Z,18.00
2022-12-18T18:26:31.220Z,13.80
2022-12-18T18:29:00.215Z,13.95
2022-12-18T18:31:33.117Z,28.30
2022-12-18T18:34:03.592Z,17.85
2022-12-18T18:36:31.312Z,15.90
2022-12-18T18:39:01.064Z,16.02
2022-12-18T18:41:29.894Z,14.85
2022-12-18T18:43:58.807Z,15.52
2022-12-18T18:46:27.188Z,19.08
2022-12-18T18:48:56.475Z,22.40
2022-12-18T18:51:24.816Z,19.98
2022-12-18T18:53:53.693Z,20.42
2022-12-18T18:59:10.930Z,18.65
2022-12-18T19:01:38.682Z,20.10
2022-12-18T19:04:07.833Z,20.35
2022-12-18T19:06:35.670Z,19.20
2022-12-18T19:09:04.847Z,21.02
2022-12-18T19:11:59.210Z,21.60
2022-12-18T19:14:27.018Z,23.63
2022-12-18T19:16:54.721Z,24.05
2022-12-18T19:19:25.245Z,24.08
2022-12-18T19:21:52.883Z,23.98
2022-12-18T19:24:22.409Z,23.45
2022-12-18T19:26:52.120Z,20.75
2022-12-18T19:29:21.480Z,23.33
2022-12-18T19:31:49.500Z,24.42
2022-12-18T19:34:17.333Z,27.70
2022-12-18T19:36:47.150Z,25.20
2022-12-18T19:39:17.052Z,25.20
2022-12-18T19:41:45.572Z,22.77
2022-12-18T19:44:15.235Z,26.38
2022-12-18T19:46:43.275Z,29.40
2022-12-18T19:49:11.543Z,29.23
2022-12-18T19:51:50.280Z,28.13
2022-12-18T19:54:18.400Z,29.15
2022-12-18T19:56:47.008Z,30.00
2022-12-18T19:59:15.190Z,28.00
2022-12-18T20:01:43.383Z,28.38
2022-12-18T20:04:11.205Z,27.17
2022-12-18T20:06:49.402Z,31.05
2022-12-18T20:09:17.582Z,29.00
2022-12-18T20:11:45.796Z,29.73
2022-12-18T20:14:16.909Z,28.27
2022-12-18T20:16:51.512Z,31.40
2022-12-18T20:19:19.836Z,30.75
2022-12-18T20:21:49.661Z,30.02
2022-12-18T20:24:17.340Z,31.20
2022-12-18T20:26:45.053Z,29.25
2022-12-18T20:29:12.833Z,29.55
2022-12-18T20:31:41.101Z,32.13
2022-12-18T20:34:08.798Z,33.08
2022-12-18T20:36:37.731Z,30.02
2022-12-18T20:39:12.112Z,25.45
2022-12-18T20:41:40.150Z,31.02
2022-12-18T20:44:19.015Z,30.35
2022-12-18T20:46:50.871Z,31.13
2022-12-18T20:49:18.653Z,36.72
2022-12-18T20:51:51.216Z,33.45
2022-12-18T20:54:20.738Z,30.88
2022-12-18T20:56:48.431Z,31.60
2022-12-18T20:59:19.587Z,31.70
2022-12-18T21:01:48.776Z,32.10
2022-12-18T21:04:18.369Z,26.75
2022-12-18T21:06:57.836Z,34.30
2022-12-18T21:09:37.251Z,32.92
2022-12-18T21:12:24.654Z,30.63
2022-12-18T21:14:59.435Z,30.83
2022-12-18T21:17:29.750Z,32.40
2022-12-18T21:20:00.622Z,27.75
2022-12-18T21:22:28.857Z,28.40
2022-12-18T21:24:58.028Z,29.27
2022-12-18T21:27:28.116Z,30.27
2022-12-18T21:29:55.904Z,34.50
2022-12-18T21:32:24.011Z,31.67
2022-12-18T21:34:57.166Z,28.58
2022-12-18T21:37:27.206Z,32.60
2022-12-18T21:39:54.837Z,30.25
2022-12-18T21:42:43.712Z,30.83
2022-12-18T21:45:12.934Z,31.75
2022-12-18T21:47:40.714Z,32.63
2022-12-18T21:50:09.101Z,29.25
2022-12-18T21:52:37.834Z,30.30
2022-12-18T21:55:09.535Z,28.08
2022-12-18T21:57:39.700Z,31.25
2022-12-18T22:00:18.474Z,31.35
2022-12-18T22:02:49.607Z,29.58
2022-12-18T22:05:37.339Z,25.77
2022-12-18T22:08:14.972Z,30.90
2022-12-18T22:10:45.443Z,31.67
2022-12-18T22:13:14.573Z,30.15
2022-12-18T22:15:42.432Z,38.22
2022-12-18T22:18:10.105Z,33.72
2022-12-18T22:20:37.766Z,33.60
2022-12-18T22:23:06.336Z,30.85
2022-12-18T22:25:34.785Z,26.50
2022-12-18T22:28:20.843Z,31.40
2022-12-18T22:30:50.225Z,30.30
2022-12-18T22:33:21.804Z,32.38
2022-12-18T22:35:49.505Z,30.25
2022-12-18T22:38:17.211Z,31.00
2022-12-18T22:40:44.912Z,29.63
2022-12-18T22:43:12.783Z,31.20
2022-12-18T22:45:40.473Z,26.33
2022-12-18T22:48:09.760Z,30.00
2022-12-18T22:50:37.482Z,27.05
2022-12-18T22:53:07.687Z,29.05
2022-12-18T22:55:35.535Z,30.40
2022-12-18T22:58:03.263Z,32.33
2022-12-18T23:00:30.971Z,26.67
2022-12-18T23:03:00.928Z,33.28
2022-12-18T23:05:31.420Z,30.02
2022-12-18T23:07:59.639Z,27.65
2022-12-18T23:10:28.848Z,27.75
2022-12-18T23:12:56.522Z,26.88
2022-12-18T23:15:28.066Z,27.42
2022-12-18T23:17:56.787Z,26.40
2022-12-18T23:20:24.526Z,28.73
2022-12-18T23:22:54.782Z,25.20
2022-12-18T23:25:22.499Z,28.92
2022-12-18T23:27:50.294Z,27.30
2022-12-18T23:30:17.993Z,26.20
2022-12-18T23:32:45.689Z,24.85
2022-12-18T23:35:15.876Z,29.17
2022-12-18T23:38:00.225Z,26.17
2022-12-18T23:40:30.417Z,28.88
2022-12-18T23:42:58.484Z,25.55
2022-12-18T23:45:26.140Z,31.02
2022-12-18T23:47:53.848Z,26.13
2022-12-18T23:50:27.773Z,26.48
2022-12-18T23:53:05.501Z,28.45
2022-12-18T23:55:40.350Z,29.60
2022-12-18T23:58:09.204Z,30.60
